Date,TemperatureHighF,TemperatureAvgF,TemperatureLowF,DewpointHighF,DewpointAvgF,DewpointLowF,HumidityHigh,HumidityAvg,HumidityLow,PressureMaxIn,PressureMinIn,WindSpeedMaxMPH,WindSpeedAvgMPH,GustSpeedMaxMPH,PrecipitationSumIn
2012-1-1,45.0,28.3,17.0,18.0,6.7,-6.0,90,44,12,0.00,40.00,8,-172,19,0.00
2012-1-2,61.0,39.7,23.0,27.0,17.4,8.0,74,43,21,0.00,40.00,7,-353,15,0.00
2012-1-3,50.0,42.3,32.0,21.0,17.3,9.0,44,35,27,0.00,40.00,11,5,24,0.00
2012-1-4,61.0,42.6,31.0,24.0,15.2,7.0,47,33,16,0.00,40.00,3,-659,9,0.00
2012-1-5,62.0,42.7,41.0,28.0,9.8,-99.9,45,32,24,0.00,40.00,13,-211,22,0.00
2012-1-6,44.0,25.1,35.0,31.0,21.4,-99.9,71,55,36,0.00,40.00,9,-435,18,0.00
2012-1-7,-200.0,0.0,200.0,25.0,-34.2,-99.9,0,0,100,0.00,40.00,0,-999,0,0.00
2012-1-8,-200.0,0.0,200.0,-99.9,-99.9,-99.9,0,0,100,0.00,40.00,0,-999,0,0.00
2012-1-9,-200.0,0.0,200.0,-99.9,-99.9,-99.9,0,0,100,0.00,40.00,0,-999,0,0.00
2012-1-10,42.0,9.3,34.0,18.0,-70.7,-99.9,50,11,34,0.00,40.00,134,-710,134,0.00
2012-1-11,33.0,14.5,1.0,24.0,10.3,-9.0,100,86,39,0.00,40.00,11,-90,16,0.00
2012-1-12,33.0,20.5,11.0,7.0,-0.8,-99.9,53,38,11,0.00,40.00,10,-81,20,0.00
2012-1-13,39.0,28.6,21.0,11.0,4.6,-1.0,46,34,23,0.00,40.00,12,-31,25,0.00
2012-1-14,45.0,37.1,30.0,17.0,13.0,4.0,45,36,28,0.00,40.00,40,6,40,0.00
2012-1-15,45.0,40.0,36.0,14.0,9.9,5.0,35,27,17,0.00,40.00,17,6,28,0.00
2012-1-16,40.0,26.8,8.0,27.0,15.6,-99.9,100,69,33,0.00,40.00,13,-134,22,0.00
2012-1-17,19.0,13.4,7.0,2.0,-2.1,-6.0,76,50,38,0.00,40.00,184,8,184,0.00
2012-1-18,36.0,28.0,18.0,25.0,14.0,1.0,80,56,41,0.00,40.00,17,9,31,0.00
2012-1-19,50.0,39.9,30.0,35.0,30.4,25.0,86,71,50,0.00,40.00,23,12,38,0.00
2012-1-20,44.0,36.8,31.0,33.0,27.0,20.0,91,69,48,0.00,40.00,19,-106,32,0.00
2012-1-21,54.0,42.1,29.0,37.0,26.3,19.0,80,55,37,0.00,40.00,15,-7,29,0.00
2012-1-22,37.0,29.3,24.0,25.0,13.8,3.0,77,53,31,0.00,40.00,13,5,28,0.00
2012-1-23,43.0,30.3,24.0,21.0,13.8,7.0,74,51,32,0.00,40.00,16,-155,29,0.00
2012-1-24,33.0,23.8,15.0,27.0,14.5,-99.9,100,82,62,0.00,40.00,6,-365,10,0.00
2012-1-25,38.0,26.2,16.0,23.0,-1.9,-99.9,100,43,38,0.00,40.00,10,-390,22,0.00
2012-1-26,46.0,32.0,28.0,31.0,6.9,-99.9,91,49,32,0.00,40.00,9,-109,22,0.00
2012-1-27,34.0,20.9,16.0,26.0,-0.2,-99.9,100,59,39,0.00,40.00,10,-121,22,0.00
2012-1-28,35.0,23.1,18.0,8.0,-9.5,-99.9,38,27,23,0.00,40.00,11,-92,25,0.00
2012-1-29,49.0,32.8,27.0,23.0,6.3,-99.9,54,41,31,0.00,40.00,15,-78,33,0.00
2012-1-30,48.0,35.0,33.0,20.0,6.7,-99.9,51,38,29,0.00,40.00,12,-85,20,0.00
2012-1-31,42.0,30.0,28.0,18.0,0.4,-99.9,59,36,16,0.00,40.00,7,-234,18,0.00
2012-2-1,44.0,30.4,27.0,20.0,5.7,-99.9,65,42,22,0.00,40.00,7,-228,22,0.00
2012-2-2,38.0,25.5,22.0,24.0,1.6,-99.9,100,52,33,0.00,40.00,160,-393,160,0.00
2012-2-3,24.0,18.6,18.0,24.0,10.2,-99.9,100,92,98,0.00,40.00,160,-283,160,0.00
2012-2-4,32.0,16.7,13.0,22.0,6.4,-99.9,100,87,61,0.00,40.00,0,-924,4,0.12
2012-2-5,52.0,19.6,12.0,30.0,0.3,-99.9,100,70,33,0.00,40.00,0,-999,4,0.28
2012-2-6,33.0,21.8,15.0,20.0,15.6,10.0,100,79,47,0.00,40.00,9,-484,11,0.04
2012-2-7,18.0,12.5,4.0,16.0,11.4,-99.9,100,98,89,0.00,40.00,2,-729,6,0.00
2012-2-8,43.0,31.5,16.0,27.0,15.5,6.0,88,53,32,0.00,40.00,12,-58,22,0.00
2012-2-9,40.0,29.2,20.0,23.0,17.0,11.0,80,61,38,0.00,40.00,8,-334,15,0.00
2012-2-10,36.0,22.8,10.0,22.0,15.1,10.0,100,75,43,0.00,40.00,8,-255,15,0.00
2012-2-11,36.0,16.4,0.0,23.0,14.2,0.0,100,92,55,0.00,40.00,4,-644,9,0.04
2012-2-12,48.0,33.0,21.0,27.0,22.6,19.0,100,70,35,0.00,40.00,1,-610,10,0.04
2012-2-13,47.0,29.7,24.0,29.0,22.6,18.0,100,77,47,0.00,40.00,7,-291,14,0.00
2012-2-14,41.0,29.5,21.0,29.0,21.1,16.0,100,74,42,0.00,40.00,9,-263,17,0.00
2012-2-15,27.0,20.2,14.0,24.0,18.9,14.0,100,95,71,0.00,40.00,8,-294,11,0.00
2012-2-16,41.0,26.2,13.0,21.0,14.8,7.0,100,66,36,0.00,40.00,11,-331,20,0.00
2012-2-17,39.0,26.7,17.0,21.0,11.6,-99.9,100,58,22,0.00,40.00,9,-67,14,0.00
2012-2-18,39.0,27.8,13.0,21.0,12.0,7.0,100,55,32,0.00,40.00,5,-498,17,0.00
2012-2-19,45.0,31.0,20.0,25.0,12.3,5.0,100,50,23,0.00,40.00,7,-270,15,0.00
2012-2-20,28.0,22.0,18.0,22.0,6.5,2.0,100,52,34,0.00,40.00,15,-8,27,0.00
2012-2-21,36.0,27.3,20.0,26.0,15.1,-99.9,84,63,43,0.00,40.00,19,-6,35,0.00
2012-2-22,43.0,36.9,30.0,33.0,28.4,24.0,97,73,59,0.00,40.00,29,12,35,0.00
2012-2-23,34.0,24.7,20.0,33.0,23.8,15.0,100,97,76,0.00,40.00,7,-192,12,0.00
2012-2-24,37.0,22.9,23.0,14.0,-7.1,-99.9,69,41,34,0.00,40.00,5,-292,18,0.08
2012-2-25,53.0,37.4,22.0,21.0,14.6,9.0,66,40,22,0.00,40.00,12,5,24,0.08
2012-2-26,27.0,20.4,14.0,12.0,1.5,-7.0,87,44,25,0.00,40.00,19,6,23,0.00
2012-2-27,41.0,25.0,10.0,22.0,10.0,-2.0,78,54,32,0.00,40.00,2,-277,8,0.00
2012-2-28,36.0,28.0,23.0,27.0,17.8,-99.9,100,69,52,0.00,40.00,49,-177,49,0.00
2012-2-29,38.0,28.5,19.0,21.0,13.9,6.0,70,55,37,0.00,40.00,16,10,29,0.00
2012-3-1,36.0,23.5,16.0,25.0,7.0,-99.9,100,66,38,0.00,40.00,10,-241,19,0.00
2012-3-2,25.0,12.6,7.0,14.0,-15.0,-99.9,88,50,36,0.00,40.00,9,-402,20,0.00
2012-3-3,34.0,20.4,12.0,20.0,-7.2,-99.9,71,45,40,0.00,40.00,13,-142,28,0.00
2012-3-4,48.0,31.2,28.0,25.0,3.4,-99.9,73,46,34,0.00,40.00,15,-211,27,0.00
2012-3-5,52.0,37.6,34.0,24.0,2.1,-99.9,43,30,27,0.00,40.00,16,-126,29,0.00
2012-3-6,61.0,41.7,37.0,21.0,0.5,-99.9,39,22,12,0.00,40.00,10,-222,22,0.00
2012-3-7,38.0,22.1,20.0,28.0,13.2,-99.9,100,89,34,0.00,40.00,8,-617,16,0.00
2012-3-8,39.0,25.2,14.0,29.0,9.8,-99.9,100,67,35,0.00,40.00,4,-597,11,0.00
2012-3-9,51.0,37.8,25.0,20.0,13.1,8.0,59,36,21,0.00,40.00,5,-408,11,0.00
2012-3-10,56.0,43.9,32.0,31.0,18.3,-99.9,74,40,15,0.00,40.00,6,-180,17,0.00
2012-3-11,55.0,42.9,34.0,30.0,22.7,9.0,76,48,22,0.00,40.00,10,-396,23,0.00
2012-3-12,56.0,45.2,38.0,24.0,19.9,16.0,49,36,24,0.00,40.00,14,5,25,0.00
2012-3-13,62.0,48.9,39.0,22.0,16.2,12.0,45,26,14,0.00,40.00,10,3,24,0.00
2012-3-14,63.0,49.7,39.0,18.0,11.3,-99.9,30,20,11,0.00,40.00,9,-3,21,0.00
2012-3-15,60.0,49.8,43.0,29.0,22.2,14.0,49,33,25,0.00,40.00,9,-67,21,0.00
2012-3-16,63.0,51.1,42.0,28.0,23.5,19.0,53,34,20,0.00,40.00,15,-213,21,0.00
2012-3-17,62.0,50.9,41.0,25.0,20.7,16.0,40,30,19,0.00,40.00,8,-331,16,0.00
2012-3-18,59.0,44.5,27.0,33.0,20.8,-99.9,84,41,23,0.00,40.00,19,-114,24,0.00
2012-3-19,38.0,28.6,20.0,20.0,9.5,3.0,76,45,21,0.00,40.00,9,-25,18,0.00
2012-3-20,42.0,29.7,18.0,19.0,11.7,-99.9,63,48,35,0.00,40.00,6,-315,12,0.00
2012-3-21,54.0,39.3,26.0,28.0,19.1,6.0,71,45,34,0.00,40.00,9,-427,16,0.00
2012-3-22,59.0,43.5,33.0,30.0,22.5,-99.9,72,47,29,0.00,40.00,9,-354,13,0.00
2012-3-23,65.0,51.5,37.0,32.0,22.5,-99.9,54,33,23,0.00,40.00,6,-310,13,0.00
2012-3-24,61.0,53.0,43.0,39.0,28.1,19.0,84,40,27,0.00,40.00,9,-143,15,0.00
2012-3-25,66.0,50.0,38.0,41.0,35.2,25.0,96,62,22,0.00,40.00,10,-546,15,0.00
2012-3-26,67.0,52.8,41.0,38.0,23.0,11.0,77,33,10,0.00,40.00,15,-183,37,0.00
2012-3-27,62.0,47.6,37.0,25.0,18.4,15.0,47,31,16,0.00,40.00,19,-80,39,0.12
2012-3-28,64.0,50.6,39.0,29.0,22.3,17.0,44,32,22,0.00,40.00,7,-196,15,0.12
2012-3-29,60.0,51.4,43.0,29.0,22.3,14.0,55,31,20,0.00,40.00,10,-11,24,0.00
2012-3-30,68.0,53.6,42.0,32.0,27.1,20.0,46,36,23,0.00,40.00,10,-88,22,0.00
2012-3-31,70.0,57.8,46.0,36.0,30.2,21.0,51,35,19,0.00,40.00,7,-223,13,0.00
2012-4-1,69.0,58.1,48.0,27.0,22.5,18.0,31,24,16,0.00,40.00,11,-201,18,0.00
2012-4-2,52.0,34.8,28.0,35.0,29.5,21.0,100,85,28,0.00,40.00,7,-95,11,0.00
2012-4-3,31.0,27.8,25.0,31.0,27.0,-99.9,100,99,100,0.00,40.00,7,-542,10,0.12
2012-4-4,52.0,38.6,23.0,45.0,35.0,23.0,100,88,68,0.00,40.00,1,-640,10,0.39
2012-4-5,58.0,48.5,39.0,43.0,30.7,-99.9,80,53,31,0.00,40.00,8,-218,16,0.04
2012-4-6,65.0,47.5,32.0,38.0,18.6,-99.9,79,36,12,0.00,40.00,15,-177,24,0.00
2012-4-7,54.0,38.1,27.0,26.0,9.8,-99.9,62,32,14,0.00,40.00,164,-8,164,0.00
2012-4-8,65.0,49.7,39.0,23.0,12.6,5.0,38,21,10,0.00,40.00,10,-49,24,0.00
2012-4-9,66.0,48.3,38.0,33.0,21.3,-99.9,81,37,14,0.00,40.00,9,-232,16,0.00
2012-4-10,70.0,51.6,36.0,42.0,30.0,-99.9,90,49,15,0.00,40.00,7,-320,14,0.00
2012-4-11,57.0,47.1,35.0,51.0,42.4,31.0,100,86,54,0.00,40.00,9,-387,25,0.08
2012-4-12,56.0,44.8,38.0,43.0,29.6,-99.9,100,60,33,0.00,40.00,10,-104,18,0.08
2012-4-13,54.0,41.8,32.0,29.0,22.3,18.0,83,48,25,0.00,40.00,9,-112,20,0.00
2012-4-14,46.0,36.3,30.0,37.0,30.2,-99.9,100,83,59,0.00,40.00,7,-450,13,0.00
2012-4-15,44.0,33.1,28.0,33.0,28.8,-99.9,100,88,48,0.00,40.00,9,-408,13,0.16
2012-4-16,49.0,37.2,25.0,31.0,25.6,22.0,100,67,37,0.00,40.00,9,-256,17,0.04
2012-4-17,57.0,45.7,38.0,31.0,26.8,23.0,67,48,34,0.00,40.00,13,-96,0,0.00
2012-4-18,62.0,47.7,37.0,38.0,30.9,26.0,76,55,29,0.00,40.00,10,-202,20,0.00
2012-4-19,54.0,37.7,35.0,46.0,33.6,-99.9,100,72,40,0.00,40.00,8,-177,27,0.04
2012-4-20,61.0,45.3,29.0,39.0,32.0,-99.9,100,60,39,0.00,40.00,8,-139,17,0.00
2012-4-21,66.0,53.7,45.0,44.0,33.5,-99.9,76,49,26,0.00,40.00,7,-61,16,0.00
2012-4-22,65.0,49.8,34.0,48.0,36.6,31.0,100,66,31,0.00,40.00,9,-429,14,0.00
2012-4-23,71.0,57.7,46.0,41.0,33.7,-99.9,64,42,31,0.00,40.00,8,-307,16,0.00
2012-4-24,75.0,61.8,51.0,43.0,34.0,29.0,53,36,23,0.00,40.00,12,-296,25,0.00
2012-4-25,70.0,58.9,50.0,41.0,32.3,21.0,63,38,23,0.00,40.00,8,-243,17,0.00
2012-4-26,68.0,54.6,44.0,50.0,41.4,-99.9,100,65,39,0.00,40.00,13,-134,21,0.08
2012-4-27,52.0,44.7,32.0,45.0,32.0,-99.9,100,67,42,0.00,40.00,11,-172,24,0.12
2012-4-28,53.0,38.4,26.0,33.0,19.1,-99.9,84,51,20,0.00,40.00,13,-108,27,0.00
2012-4-29,51.0,41.0,28.0,38.0,31.7,21.0,100,73,35,0.00,40.00,10,-352,15,0.00
2012-4-30,66.0,52.0,37.0,33.0,23.0,18.0,80,34,19,0.00,40.00,8,-304,18,0.00
2012-5-1,65.0,56.7,50.0,40.0,30.8,19.0,63,38,27,0.00,40.00,9,3,18,0.00
2012-5-2,65.0,54.0,47.0,47.0,38.6,-99.9,78,59,34,0.00,40.00,8,-40,16,0.00
2012-5-3,68.0,54.6,44.0,40.0,28.5,-99.9,77,43,32,0.00,40.00,10,-228,17,0.00
2012-5-4,74.0,61.9,51.0,37.0,28.6,-99.9,40,29,22,0.00,40.00,10,-141,16,0.00
2012-5-5,73.0,60.4,42.0,45.0,26.7,-99.9,56,29,17,0.00,40.00,10,-4,22,0.00
2012-5-6,46.0,37.7,34.0,38.0,24.5,-99.9,100,67,37,0.00,40.00,10,-232,16,0.20
2012-5-7,43.0,34.7,31.0,38.0,32.3,-99.9,100,97,81,0.00,40.00,1,-789,6,0.59
2012-5-8,52.0,39.5,29.0,40.0,25.7,-99.9,100,71,56,0.00,40.00,6,-471,14,0.04
2012-5-9,66.0,53.1,38.0,37.0,29.5,-99.9,96,46,22,0.00,40.00,11,-296,16,0.00
2012-5-10,75.0,60.6,49.0,38.0,25.9,-99.9,51,28,14,0.00,40.00,9,-341,16,0.00
2012-5-11,52.0,34.7,32.0,44.0,33.9,30.0,100,98,60,0.00,40.00,6,-160,16,0.00
2012-5-12,48.0,35.4,29.0,45.0,31.5,-99.9,100,98,99,0.00,40.00,5,-690,7,0.31
2012-5-13,52.0,41.8,34.0,45.0,38.5,34.0,100,90,58,0.00,40.00,5,-605,10,0.12
2012-5-14,66.0,51.3,36.0,37.0,28.7,20.0,94,47,22,0.00,40.00,6,-488,12,0.00
2012-5-15,68.0,57.1,45.0,38.0,30.0,21.0,50,36,26,0.00,40.00,7,-382,16,0.00
2012-5-16,74.0,57.5,49.0,50.0,33.9,-99.9,85,44,22,0.00,40.00,11,-310,22,0.00
2012-5-17,70.0,58.0,50.0,42.0,35.1,-99.9,62,45,31,0.00,40.00,8,-40,14,0.00
2012-5-18,72.0,59.0,49.0,42.0,33.5,-99.9,67,40,26,0.00,40.00,7,-222,14,0.00
2012-5-19,52.0,41.7,37.0,44.0,37.9,-99.9,100,93,58,0.00,40.00,10,-268,21,0.24
2012-5-20,60.0,50.0,36.0,51.0,42.1,35.0,100,77,49,0.00,40.00,7,-359,12,0.04
2012-5-21,75.0,59.6,46.0,44.0,35.0,-99.9,82,44,28,0.00,40.00,8,-467,26,0.00
2012-5-22,81.0,64.8,52.0,43.0,30.2,-99.9,51,30,16,0.00,40.00,8,-192,17,0.00
2012-5-23,62.0,49.8,40.0,48.0,38.7,-99.9,100,71,25,0.00,40.00,5,-118,11,0.43
2012-5-24,55.0,43.9,35.0,40.0,31.5,-99.9,100,70,42,0.00,40.00,9,-258,25,0.31
2012-5-25,57.0,45.7,38.0,51.0,43.8,38.0,100,95,74,0.00,40.00,5,-455,0,0.00
2012-5-26,76.0,61.6,44.0,52.0,39.8,-99.9,100,52,16,0.00,40.00,9,-178,26,0.00
2012-5-27,60.0,49.9,41.0,32.0,18.7,9.0,54,28,15,0.00,40.00,11,4,25,0.00
2012-5-28,64.0,51.3,42.0,33.0,24.8,-99.9,51,36,24,0.00,40.00,7,-4,22,0.00
2012-5-29,65.0,51.9,36.0,42.0,29.3,-99.9,75,44,30,0.00,40.00,8,-300,15,0.00
2012-5-30,74.0,57.6,43.0,50.0,35.3,24.0,95,47,25,0.00,40.00,13,-333,23,0.00
2012-5-31,61.0,50.5,38.0,48.0,41.7,-99.9,100,76,57,0.00,40.00,7,-336,28,0.00
2012-6-1,72.0,59.7,45.0,52.0,45.1,37.0,92,61,37,0.00,40.00,6,-296,17,0.00
2012-6-2,73.0,58.4,47.0,56.0,44.6,-99.9,96,67,34,0.00,40.00,5,-460,12,0.00
2012-6-3,82.0,65.4,56.0,59.0,44.9,38.0,89,50,27,0.00,40.00,10,-138,17,0.04
2012-6-4,80.0,67.9,55.0,54.0,42.9,-99.9,62,43,26,0.00,40.00,10,-365,19,0.04
2012-6-5,76.0,63.3,52.0,53.0,46.6,38.0,72,56,41,0.00,40.00,12,-410,20,0.00
2012-6-6,72.0,62.0,54.0,55.0,46.2,-99.9,94,59,31,0.00,40.00,7,-333,16,0.00
2012-6-7,71.0,61.8,51.0,62.0,56.0,50.0,100,84,50,0.00,40.00,8,-303,12,0.00
2012-6-8,80.0,69.5,50.0,54.0,42.2,27.0,100,45,16,0.00,40.00,10,-197,22,0.00
2012-6-9,85.0,73.0,61.0,37.0,29.2,-99.9,27,20,14,0.00,40.00,8,-39,0,0.00
2012-6-10,69.0,59.7,47.0,38.0,22.3,8.0,65,25,8,0.00,40.00,12,-3,17,0.00
2012-6-11,66.0,55.4,44.0,34.0,27.6,16.0,45,34,23,0.00,40.00,11,-114,16,0.00
2012-6-12,79.0,62.1,46.0,35.0,28.6,22.0,60,30,14,0.00,40.00,10,-289,21,0.00
2012-6-13,83.0,68.5,52.0,34.0,28.3,23.0,38,22,13,0.00,40.00,7,-171,15,0.00
2012-6-14,72.0,64.9,56.0,48.0,37.4,20.0,68,38,19,0.00,40.00,10,-208,16,0.00
2012-6-15,76.0,63.2,53.0,60.0,47.4,37.0,100,61,29,0.00,40.00,10,-166,19,0.00
2012-6-16,68.0,58.0,49.0,57.0,47.8,-99.9,91,73,48,0.00,40.00,8,-324,12,0.00
2012-6-17,84.0,72.5,56.0,45.0,36.0,27.0,70,28,12,0.00,40.00,7,-240,21,0.00
2012-6-18,88.0,76.9,66.0,37.0,31.3,25.0,31,19,12,0.00,40.00,157,-9,157,0.00
2012-6-19,85.0,74.8,62.0,45.0,34.2,24.0,49,23,13,0.00,40.00,10,-85,24,0.00
2012-6-20,64.0,55.3,48.0,54.0,46.5,28.0,100,75,35,0.00,40.00,8,-157,11,0.00
2012-6-21,74.0,61.9,50.0,54.0,46.0,38.0,73,58,44,0.00,40.00,10,-386,16,0.00
2012-6-22,90.0,75.9,57.0,52.0,36.5,28.0,80,30,11,0.00,40.00,7,-137,21,0.00
2012-6-23,89.0,79.4,68.0,38.0,33.5,28.0,24,18,14,0.00,40.00,9,-80,20,0.00
2012-6-24,89.0,79.7,68.0,47.0,37.6,29.0,43,22,15,0.00,40.00,11,-323,21,0.00
2012-6-25,90.0,77.3,61.0,57.0,44.7,39.0,80,34,18,0.00,40.00,13,-263,18,0.00
2012-6-26,91.0,78.9,69.0,53.0,44.7,37.0,41,30,23,0.00,40.00,7,-192,18,0.00
2012-6-27,87.0,72.7,61.0,59.0,49.5,43.0,81,47,27,0.00,40.00,12,-178,22,0.00
2012-6-28,84.0,70.5,61.0,59.0,49.2,43.0,69,49,33,0.00,40.00,166,-234,15,0.00
2012-6-29,91.0,76.1,67.0,51.0,44.4,38.0,47,34,16,0.00,40.00,10,-26,17,0.00
2012-6-30,84.0,74.3,61.0,52.0,43.2,36.0,46,34,25,0.00,40.00,9,-372,18,0.00
2012-7-1,89.0,75.3,59.0,55.0,41.7,34.0,62,32,16,0.00,40.00,12,-186,42,0.00
2012-7-2,87.0,73.2,57.0,58.0,47.6,37.0,100,45,20,0.00,40.00,9,-417,15,0.00
2012-7-3,84.0,71.0,59.0,58.0,50.6,46.0,81,52,29,0.00,40.00,13,-317,14,0.00
2012-7-4,83.0,74.7,66.0,50.0,46.5,42.0,52,38,27,0.00,40.00,11,-472,15,0.00
2012-7-5,81.0,68.8,59.0,66.0,59.3,53.0,100,74,46,0.00,40.00,9,-292,1,0.00
2012-7-6,73.0,62.8,55.0,63.0,55.7,50.0,100,80,59,0.00,40.00,9,-278,6,0.00
2012-7-7,66.0,57.6,53.0,65.0,57.0,52.0,100,99,92,0.00,40.00,8,-380,0,0.00
2012-7-8,64.0,57.7,53.0,62.0,57.4,53.0,100,100,98,0.00,40.00,4,-662,0,0.00
2012-7-9,70.0,60.4,54.0,65.0,58.8,53.0,100,96,76,0.00,40.00,7,-534,0,0.00
2012-7-10,73.0,61.8,52.0,66.0,57.4,51.0,100,87,67,0.00,40.00,8,-494,0,0.00
2012-7-11,76.0,66.3,54.0,61.0,53.3,48.0,92,66,40,0.00,40.00,5,-642,7,0.00
2012-7-12,78.0,68.9,59.0,59.0,52.4,44.0,74,57,42,0.00,40.00,7,-474,13,0.00
2012-7-13,81.0,70.8,60.0,57.0,49.2,41.0,70,49,27,0.00,40.00,9,-526,14,0.00
2012-7-14,80.0,70.2,60.0,56.0,50.0,43.0,67,50,35,0.00,40.00,9,-359,18,0.00
2012-7-15,80.0,68.6,60.0,65.0,53.2,48.0,95,60,42,0.00,40.00,10,-89,13,0.00
2012-7-16,78.0,64.8,55.0,61.0,54.2,48.0,100,72,46,0.00,40.00,13,-394,9,0.00
2012-7-17,75.0,67.1,57.0,62.0,53.6,47.0,89,64,50,0.00,40.00,68,-372,9,0.00
2012-7-18,81.0,70.5,59.0,57.0,49.8,46.0,77,51,32,0.00,40.00,9,-347,18,0.00
2012-7-19,88.0,73.2,61.0,59.0,50.6,44.0,63,47,29,0.00,40.00,5,-630,15,0.00
2012-7-20,87.0,75.3,64.0,56.0,49.6,44.0,58,42,27,0.00,40.00,10,-389,21,0.00
2012-7-21,84.0,73.6,61.0,61.0,52.1,45.0,63,48,37,0.00,40.00,7,-452,27,0.00
2012-7-22,79.0,69.7,58.0,61.0,53.3,44.0,86,58,38,0.00,40.00,7,-491,15,0.00
2012-7-23,82.0,68.5,57.0,64.0,54.7,44.0,100,64,41,0.00,40.00,20,-291,20,0.00
2012-7-24,82.0,70.5,57.0,65.0,53.8,44.0,99,57,41,0.00,40.00,10,-397,14,0.00
2012-7-25,77.0,65.8,55.0,65.0,55.4,49.0,100,72,48,0.00,40.00,10,-162,10,0.00
2012-7-26,76.0,65.6,53.0,63.0,56.1,47.0,100,74,49,0.00,40.00,8,-498,8,0.00
2012-7-27,78.0,66.4,58.0,61.0,53.2,39.0,87,65,39,0.00,40.00,11,-324,11,0.00
2012-7-28,80.0,68.9,60.0,59.0,53.7,49.0,75,60,42,0.00,40.00,9,-165,11,0.00
2012-7-29,78.0,66.2,59.0,67.0,55.2,47.0,100,71,49,0.00,40.00,9,-494,5,0.00
2012-7-30,74.0,63.8,56.0,66.0,58.8,51.0,100,87,65,0.00,40.00,7,-450,0,0.00
2012-7-31,85.0,70.9,57.0,63.0,55.4,49.0,100,62,34,0.00,40.00,7,-469,18,0.00
2012-8-1,82.0,69.2,55.0,62.0,55.5,50.0,100,65,37,0.00,40.00,10,-143,16,0.00
2012-8-2,75.0,66.0,57.0,64.0,52.0,45.0,87,63,49,0.00,40.00,9,-301,11,0.00
2012-8-3,80.0,71.1,60.0,56.0,44.8,39.0,78,40,26,0.00,40.00,8,-61,22,0.00
2012-8-4,67.0,57.7,47.0,57.0,50.8,45.0,100,80,55,0.00,40.00,7,-268,11,0.00
2012-8-5,82.0,67.1,53.0,59.0,50.0,42.0,87,58,33,0.00,40.00,5,-547,13,0.00
2012-8-6,84.0,71.0,60.0,59.0,49.7,39.0,91,49,29,0.00,40.00,10,-218,16,0.00
2012-8-7,81.0,69.0,60.0,57.0,50.5,37.0,78,54,36,0.00,40.00,10,-512,13,0.00
2012-8-8,82.0,70.5,59.0,49.0,41.2,34.0,49,35,25,0.00,40.00,9,-463,13,0.00
2012-8-9,80.0,68.9,56.0,61.0,48.5,37.0,63,49,37,0.00,40.00,6,-499,9,0.00
2012-8-10,79.0,67.9,55.0,59.0,52.1,49.0,93,61,39,0.00,40.00,5,-509,13,0.00
2012-8-11,79.0,66.9,56.0,61.0,50.0,-99.9,82,58,29,0.00,40.00,12,-127,24,0.00
2012-8-12,73.0,62.5,51.0,52.0,47.3,42.0,89,60,40,0.00,40.00,8,-371,15,0.00
2012-8-13,74.0,62.7,55.0,59.0,48.3,41.0,86,61,40,0.00,40.00,9,-484,13,0.00
2012-8-14,79.0,66.0,55.0,58.0,46.6,38.0,97,52,25,0.00,40.00,11,-556,17,0.00
2012-8-15,83.0,67.3,51.0,57.0,47.0,39.0,100,52,25,0.00,40.00,149,-348,18,0.00
2012-8-16,59.0,52.5,47.0,56.0,50.9,47.0,100,96,84,0.00,40.00,5,-558,5,0.00
2012-8-17,76.0,61.8,46.0,54.0,48.7,43.0,100,67,34,0.00,40.00,8,-559,12,0.00
2012-8-18,69.0,60.1,53.0,51.0,46.4,37.0,87,63,45,0.00,40.00,8,-456,16,0.00
2012-8-19,70.0,59.1,46.0,44.0,40.1,35.0,70,51,36,0.00,40.00,8,-442,14,0.00
2012-8-20,73.0,61.9,53.0,51.0,41.6,34.0,83,49,31,0.00,40.00,12,-454,21,0.00
2012-8-21,77.0,64.4,54.0,49.0,44.5,40.0,65,50,36,0.00,40.00,7,-523,14,0.00
2012-8-22,80.0,68.3,58.0,55.0,47.1,39.0,75,48,34,0.00,40.00,9,-406,22,0.00
2012-8-23,70.0,61.9,54.0,59.0,55.0,50.0,100,80,62,0.00,40.00,9,-400,0,0.00
2012-8-24,78.0,65.0,55.0,55.0,49.0,42.0,83,60,29,0.00,40.00,7,-441,14,0.00
2012-8-25,69.0,62.3,54.0,53.0,45.2,37.0,76,55,40,0.00,40.00,11,-191,13,0.00
2012-8-26,81.0,68.9,55.0,49.0,37.1,29.0,78,33,21,0.00,40.00,8,-537,16,0.00
2012-8-27,84.0,70.7,60.0,53.0,45.0,34.0,57,41,29,0.00,40.00,9,-364,19,0.00
2012-8-28,83.0,70.5,61.0,68.0,50.8,45.0,91,52,34,0.00,40.00,5,-480,28,0.00
2012-8-29,84.0,71.4,62.0,56.0,49.2,44.0,64,47,31,0.00,40.00,7,-236,15,0.00
2012-8-30,80.0,70.1,63.0,54.0,48.8,45.0,60,48,35,0.00,40.00,11,-398,16,0.00
2012-8-31,78.0,67.4,55.0,50.0,46.1,41.0,74,49,27,0.00,40.00,9,-399,16,0.00
2012-9-1,82.0,68.8,58.0,59.0,48.1,43.0,64,49,33,0.00,40.00,6,-470,18,0.00
2012-9-2,82.0,68.9,58.0,53.0,48.3,42.0,81,50,29,0.00,40.00,9,-118,18,0.00
2012-9-3,79.0,65.6,57.0,54.0,45.3,37.0,82,51,27,0.00,40.00,10,-376,14,0.00
2012-9-4,82.0,67.7,56.0,41.0,35.2,25.0,55,32,18,0.00,40.00,6,-494,18,0.00
2012-9-5,81.0,63.1,46.0,44.0,31.3,25.0,45,31,14,0.00,40.00,6,-230,13,0.00
2012-9-6,83.0,67.8,56.0,40.0,31.2,23.0,40,25,17,0.00,40.00,8,-527,15,0.00
2012-9-7,59.0,51.1,44.0,53.0,47.1,36.0,100,89,43,0.00,40.00,8,-347,14,0.00
2012-9-8,68.0,55.5,42.0,50.0,44.2,38.0,100,70,45,0.00,40.00,7,-524,12,0.00
2012-9-9,76.0,62.7,49.0,41.0,36.3,31.0,62,40,24,0.00,40.00,8,-406,16,0.00
2012-9-10,83.0,70.3,60.0,42.0,38.0,32.0,40,31,18,0.00,40.00,7,-296,18,0.00
2012-9-11,78.0,64.5,51.0,59.0,45.7,37.0,100,54,33,0.00,40.00,10,-353,29,0.00
2012-9-12,52.0,48.5,46.0,51.0,48.4,45.0,100,100,100,0.00,40.00,0,-756,0,0.00
2012-9-13,61.0,50.2,39.0,48.0,42.7,33.0,100,78,43,0.00,40.00,7,-538,11,0.00
2012-9-14,67.0,54.9,45.0,44.0,37.7,31.0,95,56,34,0.00,40.00,5,-442,14,0.00
2012-9-15,78.0,63.3,48.0,39.0,32.3,25.0,63,33,16,0.00,40.00,6,-488,15,0.00
2012-9-16,77.0,63.7,54.0,36.0,27.8,20.0,45,25,16,0.00,40.00,7,-491,14,0.00
2012-9-17,55.0,48.3,41.0,49.0,43.4,36.0,100,85,49,0.00,40.00,9,-300,15,0.00
2012-9-18,68.0,56.1,42.0,44.0,37.7,28.0,100,54,33,0.00,40.00,8,-404,15,0.00
2012-9-19,70.0,61.7,49.0,41.0,34.2,28.0,56,36,25,0.00,40.00,9,-234,15,0.00
2012-9-20,72.0,59.6,48.0,39.0,34.0,27.0,59,39,27,0.00,40.00,8,-494,14,0.00
2012-9-21,69.0,58.2,49.0,40.0,34.4,27.0,56,41,32,0.00,40.00,8,-540,14,0.00
2012-9-22,70.0,56.2,44.0,43.0,37.2,-99.9,69,52,33,0.00,40.00,7,-512,12,0.00
2012-9-23,80.0,63.8,49.0,43.0,33.9,26.0,66,35,17,0.00,40.00,5,-415,15,0.00
2012-9-24,69.0,59.1,52.0,48.0,42.8,38.0,77,56,36,0.00,40.00,6,-236,15,0.00
2012-9-25,60.0,51.9,45.0,49.0,43.5,38.0,100,75,58,0.00,40.00,11,-546,15,0.00
2012-9-26,52.0,47.2,44.0,52.0,47.0,44.0,100,100,96,0.00,40.00,6,-861,0,0.00
2012-9-27,56.0,46.6,40.0,52.0,45.5,40.0,100,98,81,0.00,40.00,9,-668,9,0.00
2012-9-28,63.0,51.2,42.0,52.0,46.2,40.0,100,85,65,0.00,40.00,5,-580,0,0.00
2012-9-29,67.0,55.4,44.0,47.0,41.5,35.0,100,64,33,0.00,40.00,8,-584,14,0.00
2012-9-30,67.0,55.0,47.0,49.0,40.3,36.0,74,59,42,0.00,40.00,83,-595,83,0.00
2012-10-1,60.0,50.0,43.0,51.0,43.8,40.0,96,80,64,0.00,40.00,7,-442,13,0.00
2012-10-2,79.0,60.2,41.0,42.0,34.7,28.0,99,42,20,0.00,40.00,4,-384,13,0.00
2012-10-3,73.0,57.4,30.0,47.0,33.2,29.0,100,44,23,0.00,40.00,7,-102,21,0.00
2012-10-4,36.0,29.1,27.0,31.0,28.4,26.0,100,99,83,0.00,40.00,7,-242,9,0.00
2012-10-5,34.0,28.2,26.0,34.0,28.0,26.0,100,100,99,0.00,40.00,5,-499,13,0.00
2012-10-6,27.0,25.2,24.0,27.0,25.1,24.0,100,100,100,0.00,40.00,0,-999,0,0.00
2012-10-7,44.0,32.2,18.0,32.0,23.2,10.0,100,75,32,0.00,40.00,5,-597,12,0.00
2012-10-8,65.0,50.0,40.0,22.0,15.4,7.0,34,24,15,0.00,40.00,12,-227,19,0.00
2012-10-9,50.0,38.1,30.0,36.0,29.2,17.0,100,77,27,0.00,40.00,5,-313,15,0.00
2012-10-10,70.0,50.0,32.0,36.0,30.9,24.0,100,53,27,0.00,40.00,8,-396,15,0.00
2012-10-11,57.0,49.9,34.0,44.0,37.0,29.0,100,63,42,0.00,40.00,6,-469,12,0.00
2012-10-12,66.0,48.8,34.0,49.0,40.0,33.0,100,77,39,0.00,40.00,4,-557,12,0.00
2012-10-13,53.0,44.4,40.0,45.0,35.5,29.0,100,72,54,0.00,40.00,9,-54,18,0.00
2012-10-14,61.0,48.3,39.0,39.0,35.8,32.0,89,65,37,0.00,40.00,7,-471,14,0.00
2012-10-15,68.0,54.6,43.0,36.0,31.5,27.0,70,44,23,0.00,40.00,12,-302,22,0.00
2012-10-16,65.0,53.8,37.0,47.0,35.4,31.0,100,51,34,0.00,40.00,10,5,30,0.00
2012-10-17,46.0,39.5,33.0,38.0,16.9,10.0,85,40,22,0.00,40.00,12,5,23,0.00
2012-10-18,57.0,44.4,35.0,23.0,18.2,13.0,43,34,24,0.00,40.00,6,3,17,0.00
2012-10-19,63.0,51.8,41.0,30.0,25.3,20.0,49,36,22,0.00,40.00,8,-67,19,0.00
2012-10-20,66.0,55.8,50.0,30.0,25.6,22.0,38,31,18,0.00,40.00,10,-10,18,0.00
2012-10-21,66.0,52.6,39.0,40.0,29.1,20.0,92,42,22,0.00,40.00,8,-345,14,0.00
2012-10-22,61.0,49.8,35.0,43.0,33.8,27.0,99,58,34,0.00,40.00,10,-345,15,0.00
2012-10-23,67.0,53.9,41.0,34.0,26.5,17.0,74,36,15,0.00,40.00,9,-134,27,0.00
2012-10-24,41.0,35.1,23.0,38.0,33.6,23.0,100,95,74,0.00,40.00,6,-490,13,0.00
2012-10-25,29.0,22.6,19.0,26.0,22.2,19.0,100,99,85,0.00,40.00,5,-761,10,0.00
2012-10-26,38.0,23.2,17.0,29.0,20.1,14.0,100,91,52,0.00,40.00,24,-523,24,0.00
2012-10-27,41.0,32.8,19.0,26.0,20.4,15.0,100,63,45,0.00,40.00,11,4,18,0.00
2012-10-28,53.0,43.1,29.0,37.0,30.1,19.0,85,61,47,0.00,40.00,9,3,20,0.00
2012-10-29,59.0,48.7,42.0,41.0,34.2,29.0,74,59,44,0.00,40.00,9,-31,16,0.00
2012-10-30,63.0,50.0,40.0,36.0,31.0,25.0,58,49,35,0.00,40.00,4,-229,15,0.00
2012-10-31,63.0,50.1,43.0,38.0,31.0,25.0,70,49,29,0.00,40.00,6,-450,12,0.00
2012-11-1,65.0,50.6,39.0,33.0,25.4,18.0,68,39,19,0.00,40.00,8,-213,19,0.00
2012-11-2,55.0,43.7,34.0,34.0,27.0,19.0,97,54,36,0.00,40.00,6,-478,12,0.00
2012-11-3,59.0,40.9,31.0,40.0,28.8,18.0,99,67,32,0.00,40.00,2,-627,11,0.00
2012-11-4,56.0,45.4,34.0,34.0,25.6,10.0,91,47,28,0.00,40.00,7,-158,15,0.00
2012-11-5,60.0,47.1,31.0,36.0,31.7,27.0,100,59,34,0.00,40.00,4,-276,15,0.00
2012-11-6,64.0,50.3,43.0,41.0,30.7,22.0,63,48,32,0.00,40.00,7,-241,13,0.00
2012-11-7,66.0,54.5,46.0,27.0,23.1,18.0,41,29,17,0.00,40.00,7,-60,19,0.00
2012-11-8,54.0,44.7,33.0,37.0,28.5,23.0,96,56,36,0.00,40.00,7,-146,16,0.00
2012-11-9,64.0,47.5,35.0,36.0,27.3,18.0,76,47,29,0.00,40.00,9,-207,17,0.00
2012-11-10,47.0,32.4,16.0,36.0,25.2,14.0,100,78,40,0.00,40.00,10,4,19,0.00
2012-11-11,26.0,16.9,10.0,13.0,5.7,-1.0,100,65,37,0.00,40.00,11,-239,30,0.00
2012-11-12,45.0,30.2,15.0,15.0,7.0,-1.0,55,37,25,0.00,40.00,10,-52,22,0.00
2012-11-13,46.0,35.7,29.0,26.0,16.3,2.0,81,46,25,0.00,40.00,8,-46,17,0.00
2012-11-14,50.0,39.3,31.0,22.0,16.4,-99.9,64,40,28,0.00,40.00,10,-45,20,0.00
2012-11-15,38.0,29.6,24.0,33.0,25.9,17.0,100,89,48,0.00,40.00,6,-352,9,0.00
2012-11-16,58.0,42.8,24.0,27.0,19.7,14.0,100,42,18,0.00,40.00,7,-198,16,0.00
2012-11-17,55.0,43.7,36.0,34.0,30.8,26.0,85,62,37,0.00,40.00,12,-205,28,0.00
2012-11-18,52.0,42.3,36.0,33.0,29.2,25.0,87,61,43,0.00,40.00,10,-156,48,0.00
2012-11-19,52.0,41.3,35.0,30.0,26.0,21.0,69,55,39,0.00,40.00,10,-88,17,0.00
2012-11-20,62.0,48.5,41.0,27.0,23.0,17.0,52,37,23,0.00,40.00,10,-164,18,0.00
2012-11-21,64.0,51.1,44.0,22.0,16.7,13.0,36,24,12,0.00,40.00,8,3,19,0.00
2012-11-22,53.0,40.3,25.0,38.0,21.6,13.0,76,48,28,0.00,40.00,12,5,21,0.00
2012-11-23,55.0,36.7,15.0,23.0,15.2,9.0,87,46,21,0.00,40.00,4,-450,15,0.00
2012-11-24,55.0,46.9,42.0,21.0,17.9,15.0,38,30,23,0.00,40.00,10,5,20,0.00
2012-11-25,56.0,43.5,30.0,26.0,17.7,13.0,76,35,20,0.00,40.00,11,4,21,0.00
2012-11-26,39.0,24.6,16.0,25.0,19.9,5.0,100,87,26,0.00,40.00,8,-644,10,0.00
2012-11-27,51.0,41.6,35.0,16.0,8.2,-1.0,33,23,15,0.00,40.00,12,-86,25,0.00
2012-11-28,50.0,43.5,38.0,19.0,12.1,2.0,37,26,16,0.00,40.00,11,3,21,0.00
2012-11-29,52.0,44.7,41.0,28.0,26.0,19.0,57,48,36,0.00,40.00,11,4,22,0.00
2012-11-30,58.0,47.4,38.0,29.0,25.8,21.0,58,44,29,0.00,40.00,17,4,31,0.00
2012-12-1,56.0,46.2,42.0,33.0,28.1,20.0,65,50,37,0.00,40.00,10,4,29,0.00
2012-12-2,62.0,48.7,38.0,29.0,18.4,11.0,54,31,12,0.00,40.00,11,3,31,0.00
2012-12-3,49.0,41.0,31.0,34.0,16.5,-2.0,67,38,13,0.00,40.00,13,4,21,0.00
2012-12-4,49.0,39.5,28.0,25.0,13.9,3.0,49,34,19,0.00,40.00,19,-43,27,0.00
2012-12-5,56.0,47.6,42.0,35.0,30.2,25.0,64,52,31,0.00,40.00,14,5,27,0.00
2012-12-6,43.0,34.9,29.0,34.0,27.9,-99.9,100,81,63,0.00,40.00,14,-156,19,0.00
2012-12-7,44.0,33.4,23.0,32.0,24.8,20.0,100,73,45,0.00,40.00,7,-75,19,0.00
2012-12-8,31.0,25.8,14.0,29.0,22.2,11.0,100,87,65,0.00,40.00,9,-97,19,0.00
2012-12-9,18.0,9.7,2.0,11.0,2.6,-7.0,93,74,49,0.00,40.00,6,-332,19,0.00
2012-12-10,30.0,18.5,11.0,14.0,6.0,-2.0,85,59,39,0.00,40.00,8,-174,22,0.00
2012-12-11,33.0,23.2,10.0,16.0,12.5,6.0,100,67,39,0.00,40.00,14,-109,22,0.00
2012-12-12,48.0,35.7,27.0,20.0,16.9,13.0,66,47,31,0.00,40.00,10,5,23,0.00
2012-12-13,47.0,37.1,30.0,20.0,14.1,11.0,49,38,26,0.00,40.00,8,-270,17,0.00
2012-12-14,40.0,34.1,27.0,27.0,15.8,10.0,76,48,34,0.00,40.00,5,-498,15,0.00
2012-12-15,36.0,31.4,24.0,26.0,19.7,13.0,77,62,47,0.00,40.00,4,-96,13,0.00
2012-12-16,32.0,25.3,21.0,17.0,11.1,4.0,74,55,36,0.00,40.00,5,-262,19,0.00
2012-12-17,36.0,28.0,23.0,28.0,19.7,9.0,100,73,53,0.00,40.00,12,5,20,0.00
2012-12-18,35.0,24.7,18.0,27.0,23.0,18.0,100,94,71,0.00,40.00,3,-635,8,0.00
2012-12-19,20.0,12.0,4.0,18.0,8.6,-6.0,100,88,47,0.00,40.00,76,-212,76,0.00
2012-12-20,37.0,24.4,9.0,12.0,3.7,-6.0,61,40,25,0.00,40.00,9,-3,21,0.00
2012-12-21,49.0,36.6,30.0,13.0,7.6,2.0,38,28,17,0.00,40.00,7,3,19,0.00
2012-12-22,51.0,39.4,32.0,9.0,2.7,-4.0,30,18,11,0.00,40.00,14,4,82,0.00
2012-12-23,37.0,32.9,23.0,23.0,13.3,-3.0,80,45,15,0.00,40.00,14,8,27,0.00
2012-12-24,37.0,27.2,12.0,23.0,17.5,8.0,100,70,46,0.00,40.00,6,-288,17,0.00
2012-12-25,20.0,10.7,0.0,16.0,8.1,0.0,100,92,76,0.00,40.00,0,-803,5,0.00
2012-12-26,39.0,24.3,14.0,26.0,14.1,1.0,89,67,25,0.00,40.00,5,-386,15,0.00
2012-12-27,25.0,16.6,6.0,19.0,13.7,6.0,100,91,55,0.00,40.00,83,-395,83,0.00
2012-12-28,27.0,15.6,7.0,8.0,2.8,-3.0,100,59,34,0.00,40.00,5,-216,15,0.00
2012-12-29,37.0,22.9,12.0,8.0,-1.5,-8.0,51,33,16,0.00,40.00,10,-526,12,0.00
2012-12-30,40.0,26.4,16.0,13.0,6.8,0.0,81,45,22,0.00,40.00,13,-138,82,0.00
2012-12-31,19.0,12.4,7.0,17.0,10.9,7.0,100,95,79,0.00,40.00,1,-835,0,0.00
2013-1-1,26.0,15.4,7.0,11.0,3.6,-1.0,100,62,36,0.00,40.00,6,-449,22,0.00